Time;durP1;ratioP1;P1;durP2;ratioP2;P2;SDS_P1;SDS_P2;PMS_P1;PMS_P2;Temp;Humidity;BMP_temperature;BMP_pressure;BME280_temperature;BME280_humidity;BME280_pressure;Samples;Min_cycle;Max_cycle;Signal;HPM_P1;HPM_P2
2023/04/10 00:02:19;;;;;;;;;;;14.80;84.50;;;;;;5039844;28;19927;-11
2023/04/10 00:04:45;;;;;;;;;;;14.80;84.50;;;;;;5039798;28;19909;-11
2023/04/10 00:07:11;;;;;;;;;;;14.70;84.40;;;;;;5055613;28;19959;-11
2023/04/10 00:09:37;;;;;;;;;;;14.70;84.50;;;;;;5055872;28;20152;-11
2023/04/10 00:12:03;;;;;;;;;;;14.70;84.50;;;;;;5055959;28;20265;-11
2023/04/10 00:14:28;;;;;;;;;;;14.70;84.50;;;;;;5055944;28;20349;-11
2023/04/10 00:16:54;;;;;;;;;;;14.70;84.50;;;;;;5036829;28;19909;-11
2023/04/10 00:19:19;;;;;;;;;;;14.70;84.70;;;;;;5054346;28;19909;-11
2023/04/10 00:21:45;;;;;;;;;;;14.70;84.60;;;;;;5054597;28;19917;-11
2023/04/10 00:24:11;;;;;;;;;;;14.70;84.70;;;;;;5055256;28;19944;-11
2023/04/10 00:26:36;;;;;;;;;;;14.70;84.70;;;;;;5054625;28;19916;-11
2023/04/10 00:29:02;;;;;;;;;;;14.70;84.80;;;;;;5054910;28;20214;-11
2023/04/10 00:31:29;;;;;;;;;;;14.70;84.80;;;;;;5037487;28;20004;-11
2023/04/10 00:33:54;;;;;;;;;;;14.70;84.80;;;;;;5038068;28;20163;-11
2023/04/10 00:36:20;;;;;;;;;;;14.60;84.80;;;;;;5038608;28;19920;-11
2023/04/10 00:38:46;;;;;;;;;;;14.60;84.90;;;;;;5056127;28;20189;-11
2023/04/10 00:41:11;;;;;;;;;;;14.60;85.00;;;;;;5056030;28;19909;-11
2023/04/10 00:43:37;;;;;;;;;;;14.60;85.00;;;;;;5055301;28;19920;-11
2023/04/10 00:46:03;;;;;;;;;;;14.60;85.00;;;;;;5056284;28;19923;-11
2023/04/10 00:48:29;;;;;;;;;;;14.60;85.00;;;;;;5038534;28;19909;-11
2023/04/10 00:50:54;;;;;;;;;;;14.60;85.00;;;;;;5038442;28;19939;-11
2023/04/10 00:53:20;;;;;;;;;;;14.60;85.00;;;;;;5026342;28;20050;-11
2023/04/10 00:55:46;;;;;;;;;;;14.60;85.10;;;;;;5051485;28;20424;-11
2023/04/10 00:58:13;;;;;;;;;;;14.60;85.10;;;;;;5052312;28;20202;-11
2023/04/10 01:00:39;;;;;;;;;;;14.60;85.10;;;;;;5049776;28;19917;-11
2023/04/10 01:03:06;;;;;;;;;;;14.50;85.10;;;;;;5050149;28;20338;-11
2023/04/10 01:05:34;;;;;;;;;;;14.60;85.10;;;;;;5053174;28;19916;-11
2023/04/10 01:08:22;;;;;;;;;;;14.60;85.10;;;;;;5036512;28;20239;-11
2023/04/10 01:10:52;;;;;;;;;;;14.50;85.00;;;;;;5053082;28;19917;-11
2023/04/10 01:13:22;;;;;;;;;;;14.50;85.10;;;;;;5054121;28;20149;-11
2023/04/10 01:15:51;;;;;;;;;;;14.50;85.00;;;;;;5037347;28;19908;-11
2023/04/10 01:18:25;;;;;;;;;;;14.50;85.00;;;;;;5054541;28;19967;-11
2023/04/10 01:20:51;;;;;;;;;;;14.50;85.00;;;;;;5053641;28;20185;-11
2023/04/10 01:23:35;;;;;;;;;;;14.50;84.90;;;;;;5055810;28;19909;-11
2023/04/10 01:26:05;;;;;;;;;;;14.50;84.90;;;;;;5056645;28;19999;-11
2023/04/10 01:28:46;;;;;;;;;;;14.50;84.80;;;;;;5039506;28;19909;-11
2023/04/10 01:31:14;;;;;;;;;;;14.50;84.80;;;;;;5038525;28;19924;-11
2023/04/10 01:33:44;;;;;;;;;;;14.50;84.70;;;;;;5056785;28;20179;-11
2023/04/10 01:36:11;;;;;;;;;;;14.50;84.70;;;;;;5055536;28;19909;-11
2023/04/10 01:38:38;;;;;;;;;;;14.50;84.70;;;;;;5038298;28;19944;-11
2023/04/10 01:41:04;;;;;;;;;;;14.50;84.70;;;;;;5055251;28;19913;-11
2023/04/10 01:43:31;;;;;;;;;;;14.50;84.70;;;;;;5036919;28;19917;-11
2023/04/10 01:45:58;;;;;;;;;;;14.50;84.60;;;;;;5055670;28;19924;-11
2023/04/10 01:48:25;;;;;;;;;;;14.50;84.60;;;;;;5059383;28;19913;-11
2023/04/10 01:50:51;;;;;;;;;;;14.40;84.50;;;;;;5039830;28;19913;-11
2023/04/10 01:53:17;;;;;;;;;;;14.40;84.50;;;;;;5059061;28;19908;-11
2023/04/10 01:55:42;;;;;;;;;;;14.50;84.60;;;;;;5058009;28;19974;-11
2023/04/10 01:58:08;;;;;;;;;;;14.40;84.40;;;;;;5058440;28;19909;-11
2023/04/10 02:00:41;;;;;;;;;;;14.40;84.30;;;;;;5041825;28;19916;-11
2023/04/10 02:03:07;;;;;;;;;;;14.40;84.30;;;;;;5041607;28;19920;-11
2023/04/10 02:06:02;;;;;;;;;;;14.40;84.30;;;;;;5059831;28;19932;-11
2023/04/10 02:08:33;;;;;;;;;;;14.40;84.30;;;;;;5005149;28;20060;-11
2023/04/10 02:11:04;;;;;;;;;;;14.40;84.30;;;;;;5042245;28;19912;-11
2023/04/10 02:13:33;;;;;;;;;;;14.40;84.20;;;;;;5059498;28;20286;-11
2023/04/10 02:15:59;;;;;;;;;;;14.40;84.20;;;;;;5059286;28;19909;-11
2023/04/10 02:18:25;;;;;;;;;;;14.40;84.20;;;;;;5059867;28;19931;-11
2023/04/10 02:20:51;;;;;;;;;;;14.40;84.10;;;;;;5059461;28;19909;-11
2023/04/10 02:23:19;;;;;;;;;;;14.40;84.10;;;;;;5058895;28;19971;-11
2023/04/10 02:25:45;;;;;;;;;;;14.40;84.00;;;;;;5042834;28;19909;-11
2023/04/10 02:28:10;;;;;;;;;;;14.40;83.90;;;;;;5040881;28;19941;-11
2023/04/10 02:30:36;;;;;;;;;;;14.40;84.00;;;;;;5040703;28;19913;-11
2023/04/10 02:33:01;;;;;;;;;;;14.40;83.90;;;;;;5041373;28;19955;-11
2023/04/10 02:35:28;;;;;;;;;;;14.40;83.80;;;;;;5040925;28;19913;-11
2023/04/10 02:37:54;;;;;;;;;;;14.30;83.70;;;;;;5057392;28;19913;-11
2023/04/10 02:40:20;;;;;;;;;;;14.40;83.70;;;;;;5057786;28;20309;-11
2023/04/10 02:42:46;;;;;;;;;;;14.30;83.60;;;;;;5040906;28;19940;-11
2023/04/10 02:45:11;;;;;;;;;;;14.30;83.60;;;;;;5041359;28;20244;-11
2023/04/10 02:47:37;;;;;;;;;;;14.40;83.60;;;;;;5059372;28;20468;-11
2023/04/10 02:50:03;;;;;;;;;;;14.40;83.60;;;;;;5041448;28;19927;-11
2023/04/10 02:52:28;;;;;;;;;;;14.40;83.50;;;;;;5058507;28;19908;-11
2023/04/10 02:54:54;;;;;;;;;;;14.30;83.40;;;;;;5041231;28;19936;-11
2023/04/10 02:57:20;;;;;;;;;;;14.30;83.40;;;;;;5040183;28;19908;-11
2023/04/10 02:59:49;;;;;;;;;;;14.30;83.30;;;;;;5040948;28;19908;-11
2023/04/10 03:02:14;;;;;;;;;;;14.30;83.40;;;;;;5057879;28;20266;-11
2023/04/10 03:04:40;;;;;;;;;;;14.30;83.30;;;;;;5058181;28;20306;-11
2023/04/10 03:07:05;;;;;;;;;;;14.30;83.30;;;;;;5059003;28;20175;-11
2023/04/10 03:09:31;;;;;;;;;;;14.30;83.20;;;;;;5058519;28;20004;-11
2023/04/10 03:11:57;;;;;;;;;;;14.30;83.20;;;;;;5058603;28;19917;-11
2023/04/10 03:14:23;;;;;;;;;;;14.30;83.20;;;;;;5058525;28;20194;-11
2023/04/10 03:16:49;;;;;;;;;;;14.30;83.20;;;;;;5058352;28;20011;-11
2023/04/10 03:19:15;;;;;;;;;;;14.30;83.20;;;;;;5058320;28;20290;-11
2023/04/10 03:21:41;;;;;;;;;;;14.30;83.20;;;;;;5057874;28;19920;-11
2023/04/10 03:24:06;;;;;;;;;;;14.30;83.10;;;;;;5058325;28;20171;-11
2023/04/10 03:26:32;;;;;;;;;;;14.30;83.10;;;;;;5058975;28;19909;-11
2023/04/10 03:28:57;;;;;;;;;;;14.30;83.10;;;;;;5057813;28;20016;-11
2023/04/10 03:31:23;;;;;;;;;;;14.30;83.20;;;;;;5056121;28;19913;-11
2023/04/10 03:33:48;;;;;;;;;;;14.30;83.10;;;;;;5056674;28;19909;-11
2023/04/10 03:36:14;;;;;;;;;;;14.30;83.10;;;;;;5039701;28;19909;-11
2023/04/10 03:38:40;;;;;;;;;;;14.20;83.00;;;;;;5039626;28;20087;-11
2023/04/10 03:41:05;;;;;;;;;;;14.30;83.00;;;;;;5056148;28;19926;-11
2023/04/10 03:43:31;;;;;;;;;;;14.30;82.90;;;;;;5056914;28;19909;-11
2023/04/10 03:45:57;;;;;;;;;;;14.30;82.90;;;;;;5039357;28;19908;-11
2023/04/10 03:48:22;;;;;;;;;;;14.30;83.00;;;;;;5057215;28;20000;-11
2023/04/10 03:50:48;;;;;;;;;;;14.30;83.00;;;;;;5039288;28;20190;-11
2023/04/10 03:53:14;;;;;;;;;;;14.20;82.80;;;;;;5039018;28;19912;-11
2023/04/10 03:55:40;;;;;;;;;;;14.20;82.80;;;;;;5056354;28;19913;-11
2023/04/10 03:58:05;;;;;;;;;;;14.20;82.80;;;;;;5056068;28;19947;-11
2023/04/10 04:00:31;;;;;;;;;;;14.20;82.90;;;;;;5056274;28;19940;-11
2023/04/10 04:02:57;;;;;;;;;;;14.20;82.90;;;;;;5038731;28;19913;-11
2023/04/10 04:05:23;;;;;;;;;;;14.20;82.90;;;;;;5056328;28;19909;-11
2023/04/10 04:07:49;;;;;;;;;;;14.20;82.90;;;;;;5056537;28;19909;-11
2023/04/10 04:10:14;;;;;;;;;;;14.20;82.80;;;;;;5038007;28;19966;-11
2023/04/10 04:12:40;;;;;;;;;;;14.20;82.80;;;;;;5056888;28;19909;-11
2023/04/10 04:15:06;;;;;;;;;;;14.20;82.80;;;;;;5055914;28;20263;-11
2023/04/10 04:17:31;;;;;;;;;;;14.20;82.80;;;;;;5055993;28;19917;-11
2023/04/10 04:19:57;;;;;;;;;;;14.20;82.80;;;;;;5039408;28;19909;-11
2023/04/10 04:22:23;;;;;;;;;;;14.20;82.90;;;;;;5056557;28;19970;-11
2023/04/10 04:24:48;;;;;;;;;;;14.20;82.90;;;;;;5055993;28;19909;-11
2023/04/10 04:27:14;;;;;;;;;;;14.20;82.80;;;;;;5039343;28;19919;-11
2023/04/10 04:29:39;;;;;;;;;;;14.10;82.70;;;;;;5057106;28;19995;-11
2023/04/10 04:32:05;;;;;;;;;;;14.20;82.70;;;;;;5056210;28;19909;-11
2023/04/10 04:34:30;;;;;;;;;;;14.20;82.60;;;;;;5039393;28;19969;-11
2023/04/10 04:36:56;;;;;;;;;;;14.20;82.70;;;;;;5055877;28;19951;-11
2023/04/10 04:39:22;;;;;;;;;;;14.10;83.20;;;;;;5055600;28;19909;-11
2023/04/10 04:41:47;;;;;;;;;;;14.20;82.60;;;;;;5037882;28;19917;-11
2023/04/10 04:44:13;;;;;;;;;;;14.10;82.60;;;;;;5053853;28;20187;-11
2023/04/10 04:46:38;;;;;;;;;;;14.10;82.50;;;;;;5053584;28;19958;-11
2023/04/10 04:49:04;;;;;;;;;;;14.20;82.60;;;;;;5036244;28;19912;-11
2023/04/10 04:51:29;;;;;;;;;;;14.10;83.10;;;;;;5054320;28;19921;-11
2023/04/10 04:53:55;;;;;;;;;;;14.20;82.50;;;;;;5037626;28;19909;-11
2023/04/10 04:56:20;;;;;;;;;;;14.20;82.40;;;;;;5036499;28;20289;-11
2023/04/10 04:58:46;;;;;;;;;;;14.10;82.40;;;;;;5036326;28;20013;-11
2023/04/10 05:01:11;;;;;;;;;;;14.10;82.30;;;;;;5055291;28;19924;-11
2023/04/10 05:03:37;;;;;;;;;;;14.10;82.20;;;;;;5038256;28;19909;-11
2023/04/10 05:06:03;;;;;;;;;;;14.20;82.30;;;;;;5056300;28;19999;-11
2023/04/10 05:08:28;;;;;;;;;;;14.20;82.30;;;;;;5056398;28;19909;-11
2023/04/10 05:10:54;;;;;;;;;;;14.20;82.20;;;;;;5055072;28;19960;-11
2023/04/10 05:13:20;;;;;;;;;;;14.20;82.10;;;;;;5054698;28;19908;-11
2023/04/10 05:15:45;;;;;;;;;;;14.20;82.10;;;;;;5054235;28;19983;-11
2023/04/10 05:18:12;;;;;;;;;;;14.20;82.10;;;;;;5054168;28;19910;-11
2023/04/10 05:20:38;;;;;;;;;;;14.20;82.00;;;;;;5054781;28;19913;-11
2023/04/10 05:23:03;;;;;;;;;;;14.20;81.90;;;;;;5041421;28;19923;-11
2023/04/10 05:25:29;;;;;;;;;;;14.20;81.80;;;;;;5059131;28;19919;-11
2023/04/10 05:27:55;;;;;;;;;;;14.20;81.70;;;;;;5058202;28;19909;-11
2023/04/10 05:30:20;;;;;;;;;;;14.20;81.50;;;;;;5041427;28;19973;-11
2023/04/10 05:32:46;;;;;;;;;;;14.20;81.40;;;;;;5058907;28;19916;-11
2023/04/10 05:35:11;;;;;;;;;;;14.20;81.30;;;;;;5056518;28;19924;-11
2023/04/10 05:37:37;;;;;;;;;;;14.30;81.20;;;;;;5039706;28;20320;-11
2023/04/10 05:40:05;;;;;;;;;;;14.30;81.00;;;;;;5058314;28;19924;-11
2023/04/10 05:42:31;;;;;;;;;;;14.30;80.90;;;;;;5040965;28;20321;-11
2023/04/10 05:44:56;;;;;;;;;;;14.40;80.60;;;;;;5040565;28;19921;-11
2023/04/10 05:47:22;;;;;;;;;;;14.40;80.40;;;;;;5057003;28;20014;-11
2023/04/10 05:49:47;;;;;;;;;;;14.40;80.20;;;;;;5058382;28;19935;-11
2023/04/10 05:52:12;;;;;;;;;;;14.40;79.90;;;;;;5057598;28;19920;-11
2023/04/10 05:54:38;;;;;;;;;;;14.40;79.70;;;;;;5056812;28;19909;-11
2023/04/10 05:57:03;;;;;;;;;;;14.50;79.50;;;;;;5039775;28;19999;-11
2023/04/10 05:59:29;;;;;;;;;;;14.50;79.20;;;;;;5040545;28;20174;-11
2023/04/10 06:01:55;;;;;;;;;;;14.60;78.80;;;;;;5037878;28;19928;-11
2023/04/10 06:04:21;;;;;;;;;;;14.70;78.50;;;;;;5057653;28;20054;-11
2023/04/10 06:06:46;;;;;;;;;;;14.80;78.00;;;;;;5039395;28;19982;-11
2023/04/10 06:09:12;;;;;;;;;;;14.90;77.20;;;;;;5041438;28;20333;-11
2023/04/10 06:11:37;;;;;;;;;;;15.00;76.40;;;;;;5056889;28;20015;-11
2023/04/10 06:14:03;;;;;;;;;;;15.20;75.50;;;;;;5040364;28;19909;-11
2023/04/10 06:16:28;;;;;;;;;;;15.50;74.20;;;;;;5039650;28;20162;-11
2023/04/10 06:18:54;;;;;;;;;;;15.90;72.40;;;;;;5038264;28;19909;-11
2023/04/10 06:21:19;;;;;;;;;;;16.30;70.00;;;;;;5056409;28;20165;-11
2023/04/10 06:23:45;;;;;;;;;;;16.80;68.10;;;;;;5057116;28;19909;-11
2023/04/10 06:26:11;;;;;;;;;;;17.20;64.70;;;;;;5056456;28;19916;-11
2023/04/10 06:28:36;;;;;;;;;;;17.60;62.60;;;;;;5056188;28;20237;-11
2023/04/10 06:31:03;;;;;;;;;;;17.80;60.70;;;;;;5039418;28;20266;-11
2023/04/10 06:33:28;;;;;;;;;;;18.10;59.50;;;;;;5037655;28;19908;-11
2023/04/10 06:35:54;;;;;;;;;;;18.00;58.90;;;;;;5057066;28;19975;-11
2023/04/10 06:38:20;;;;;;;;;;;18.30;58.30;;;;;;5038771;28;20171;-11
2023/04/10 06:40:45;;;;;;;;;;;18.50;57.70;;;;;;5057188;28;19909;-11
2023/04/10 06:43:11;;;;;;;;;;;18.60;57.20;;;;;;5042322;28;19999;-11
2023/04/10 06:45:43;;;;;;;;;;;18.70;56.80;;;;;;5043237;28;19995;-11
2023/04/10 06:48:08;;;;;;;;;;;18.70;56.50;;;;;;5060775;28;19919;-11
2023/04/10 06:50:34;;;;;;;;;;;18.80;56.20;;;;;;5042787;28;19917;-11
2023/04/10 06:52:59;;;;;;;;;;;18.90;55.90;;;;;;5059557;28;19909;-11
2023/04/10 06:55:25;;;;;;;;;;;19.00;55.70;;;;;;5059839;28;19909;-11
2023/04/10 06:57:51;;;;;;;;;;;19.10;55.30;;;;;;5042473;28;19966;-11
2023/04/10 07:00:17;;;;;;;;;;;19.20;55.00;;;;;;5042593;28;19920;-11
2023/04/10 07:02:43;;;;;;;;;;;19.40;54.80;;;;;;5041823;28;20188;-11
2023/04/10 07:05:09;;;;;;;;;;;19.60;54.40;;;;;;5042722;28;20004;-11
2023/04/10 07:07:34;;;;;;;;;;;20.00;53.80;;;;;;5042219;28;19913;-11
2023/04/10 07:10:00;;;;;;;;;;;20.30;53.30;;;;;;5060277;28;19908;-11
2023/04/10 07:12:25;;;;;;;;;;;20.70;52.70;;;;;;5059835;28;19935;-11
2023/04/10 07:14:51;;;;;;;;;;;21.00;52.00;;;;;;5041982;28;19919;-11
2023/04/10 07:17:17;;;;;;;;;;;21.40;51.50;;;;;;5041948;28;19959;-11
2023/04/10 07:19:42;;;;;;;;;;;21.70;50.80;;;;;;5041987;28;20340;-11
2023/04/10 07:22:08;;;;;;;;;;;22.10;50.30;;;;;;5041910;28;20537;-10
2023/04/10 07:24:33;;;;;;;;;;;22.20;49.70;;;;;;5041654;28;19928;-11
2023/04/10 07:27:00;;;;;;;;;;;22.40;49.50;;;;;;5041304;28;19908;-11
2023/04/10 07:29:26;;;;;;;;;;;22.20;49.30;;;;;;5041985;28;20050;-10
2023/04/10 07:31:51;;;;;;;;;;;21.90;49.30;;;;;;5058868;28;20015;-10
2023/04/10 07:34:17;;;;;;;;;;;21.60;49.50;;;;;;5042068;28;19920;-10
2023/04/10 07:36:42;;;;;;;;;;;21.50;49.70;;;;;;5059125;28;20009;-10
2023/04/10 07:39:08;;;;;;;;;;;21.30;49.70;;;;;;5042588;28;19982;-10
2023/04/10 07:41:34;;;;;;;;;;;21.10;49.90;;;;;;5041962;28;19909;-10
2023/04/10 07:44:00;;;;;;;;;;;21.10;50.10;;;;;;5041279;28;19944;-10
2023/04/10 07:46:26;;;;;;;;;;;21.10;50.00;;;;;;5043365;23;20213;-11
2023/04/10 07:48:52;;;;;;;;;;;21.00;50.00;;;;;;5032593;28;19909;-11
2023/04/10 07:51:17;;;;;;;;;;;21.00;50.10;;;;;;5035190;28;19913;-10
2023/04/10 07:53:43;;;;;;;;;;;21.30;50.00;;;;;;5032927;28;19909;-10
2023/04/10 07:56:14;;;;;;;;;;;21.60;49.60;;;;;;5032200;28;20233;-11
2023/04/10 07:58:40;;;;;;;;;;;21.60;49.40;;;;;;5031052;28;20025;-11
2023/04/10 08:01:05;;;;;;;;;;;21.60;49.30;;;;;;5034054;28;19924;-10
2023/04/10 08:03:36;;;;;;;;;;;21.40;49.30;;;;;;5032519;28;19944;-10
2023/04/10 08:06:01;;;;;;;;;;;21.20;49.40;;;;;;5033523;28;20034;-10
2023/04/10 08:08:27;;;;;;;;;;;21.20;49.60;;;;;;5033751;28;20237;-10
2023/04/10 08:10:53;;;;;;;;;;;21.20;49.60;;;;;;5034019;28;19923;-10
2023/04/10 08:13:18;;;;;;;;;;;21.00;50.00;;;;;;5034197;28;19909;-10
2023/04/10 08:15:44;;;;;;;;;;;20.80;49.80;;;;;;5033923;28;20283;-11
2023/04/10 08:18:10;;;;;;;;;;;20.90;49.90;;;;;;5034481;28;19963;-10
2023/04/10 08:20:35;;;;;;;;;;;21.50;49.50;;;;;;5034892;28;19924;-11
2023/04/10 08:23:01;;;;;;;;;;;22.10;49.00;;;;;;5035229;28;20175;-11
2023/04/10 08:25:27;;;;;;;;;;;22.70;48.30;;;;;;5035409;28;19915;-11
2023/04/10 08:27:52;;;;;;;;;;;23.30;47.70;;;;;;5034593;28;19909;-11
2023/04/10 08:30:18;;;;;;;;;;;23.70;47.10;;;;;;5033821;28;20092;-11
2023/04/10 08:32:43;;;;;;;;;;;24.00;46.70;;;;;;5031610;28;19910;-11
2023/04/10 08:35:09;;;;;;;;;;;24.20;46.30;;;;;;5032302;28;19928;-11
2023/04/10 08:37:35;;;;;;;;;;;24.30;46.10;;;;;;5032092;28;19909;-11
2023/04/10 08:40:00;;;;;;;;;;;24.50;45.80;;;;;;5032145;28;19948;-12
2023/04/10 08:42:26;;;;;;;;;;;24.70;45.50;;;;;;5030865;28;19923;-12
2023/04/10 08:44:52;;;;;;;;;;;24.90;45.20;;;;;;5033040;28;19948;-12
2023/04/10 08:47:19;;;;;;;;;;;25.10;44.90;;;;;;5031377;28;19924;-12
2023/04/10 08:49:44;;;;;;;;;;;25.30;44.80;;;;;;5031691;28;19932;-12
2023/04/10 08:52:15;;;;;;;;;;;25.50;44.80;;;;;;5030892;28;19913;-12
2023/04/10 08:54:42;;;;;;;;;;;25.50;44.90;;;;;;5029722;28;19909;-12
2023/04/10 08:57:12;;;;;;;;;;;25.60;44.70;;;;;;5032129;28;19909;-12
2023/04/10 08:59:38;;;;;;;;;;;25.60;44.80;;;;;;5029818;28;19946;-12
2023/04/10 09:02:05;;;;;;;;;;;25.50;44.70;;;;;;5030203;28;19963;-12
2023/04/10 09:04:30;;;;;;;;;;;25.20;44.90;;;;;;5031471;28;19909;-12
2023/04/10 09:06:56;;;;;;;;;;;24.80;44.90;;;;;;5030097;28;19924;-12
2023/04/10 09:09:21;;;;;;;;;;;24.50;45.20;;;;;;5030874;28;19909;-12
2023/04/10 09:11:59;;;;;;;;;;;24.20;45.40;;;;;;5030146;28;19924;-12
2023/04/10 09:14:28;;;;;;;;;;;23.80;45.50;;;;;;5030332;28;19936;-12
2023/04/10 09:17:08;;;;;;;;;;;23.60;45.60;;;;;;5029692;28;20247;-12
2023/04/10 09:19:34;;;;;;;;;;;23.40;45.70;;;;;;5030911;28;19920;-12
2023/04/10 09:22:00;;;;;;;;;;;23.00;45.70;;;;;;5029318;28;19909;-12
2023/04/10 09:24:25;;;;;;;;;;;22.70;46.00;;;;;;5030944;28;20103;-11
2023/04/10 09:26:51;;;;;;;;;;;22.70;46.10;;;;;;5031633;28;20119;-12
2023/04/10 09:29:17;;;;;;;;;;;22.80;45.90;;;;;;5032581;28;19909;-12
2023/04/10 09:31:42;;;;;;;;;;;22.70;45.90;;;;;;5031918;28;20128;-12
2023/04/10 09:34:18;;;;;;;;;;;22.60;45.70;;;;;;5031527;28;19917;-12
2023/04/10 09:36:52;;;;;;;;;;;22.70;45.60;;;;;;5030930;28;20154;-12
2023/04/10 09:39:17;;;;;;;;;;;22.70;45.30;;;;;;5032251;28;19909;-11
2023/04/10 09:41:47;;;;;;;;;;;22.60;45.30;;;;;;5031996;28;20143;-16
2023/04/10 09:44:13;;;;;;;;;;;22.60;45.40;;;;;;5032569;28;20167;-11
2023/04/10 09:46:38;;;;;;;;;;;22.50;45.40;;;;;;5032738;28;19924;-12
2023/04/10 09:49:05;;;;;;;;;;;22.30;45.40;;;;;;5031768;28;19913;-11
2023/04/10 09:51:32;;;;;;;;;;;22.10;45.60;;;;;;5029198;28;19924;-11
2023/04/10 09:53:58;;;;;;;;;;;21.90;45.70;;;;;;5030355;28;19910;-11
2023/04/10 09:56:25;;;;;;;;;;;21.70;46.00;;;;;;5031947;28;19909;-11
2023/04/10 09:58:51;;;;;;;;;;;21.50;46.20;;;;;;5030388;28;19909;-11
2023/04/10 10:01:16;;;;;;;;;;;21.60;46.40;;;;;;5032074;28;19913;-11
2023/04/10 10:03:42;;;;;;;;;;;21.80;46.20;;;;;;5031094;28;19916;-11
2023/04/10 10:06:10;;;;;;;;;;;21.90;45.90;;;;;;5036477;28;19943;-11
2023/04/10 10:08:36;;;;;;;;;;;21.80;45.90;;;;;;5039392;28;19909;-11
2023/04/10 10:11:05;;;;;;;;;;;21.60;45.90;;;;;;5036555;28;19920;-11
2023/04/10 10:13:43;;;;;;;;;;;21.30;46.00;;;;;;5032097;28;19917;-11
2023/04/10 10:16:13;;;;;;;;;;;21.00;46.20;;;;;;5025827;28;19915;-11
2023/04/10 10:18:48;;;;;;;;;;;20.70;46.50;;;;;;5030547;28;19909;-11
2023/04/10 10:21:14;;;;;;;;;;;20.50;46.70;;;;;;5030751;28;19909;-11
2023/04/10 10:23:42;;;;;;;;;;;20.40;47.10;;;;;;5031322;28;19909;-11
2023/04/10 10:26:08;;;;;;;;;;;20.20;47.20;;;;;;5030175;28;19920;-11
2023/04/10 10:28:34;;;;;;;;;;;20.10;47.40;;;;;;5032681;28;19909;-11
2023/04/10 10:31:01;;;;;;;;;;;20.00;47.70;;;;;;5031805;28;20306;-11
2023/04/10 10:33:28;;;;;;;;;;;19.90;47.90;;;;;;5031806;28;20387;-11
2023/04/10 10:35:56;;;;;;;;;;;19.70;48.10;;;;;;5033594;28;19910;-11
2023/04/10 10:38:22;;;;;;;;;;;19.70;48.20;;;;;;5034239;28;20008;-11
2023/04/10 10:40:50;;;;;;;;;;;19.60;48.20;;;;;;5034388;28;20003;-11
2023/04/10 10:43:35;;;;;;;;;;;19.50;48.30;;;;;;5034141;28;20083;-11
2023/04/10 10:46:06;;;;;;;;;;;19.40;48.40;;;;;;5033516;28;19917;-11
2023/04/10 10:48:31;;;;;;;;;;;19.40;48.50;;;;;;5031976;28;19909;-11
2023/04/10 10:50:59;;;;;;;;;;;19.30;48.60;;;;;;5033387;28;19931;-11
2023/04/10 10:53:37;;;;;;;;;;;19.30;48.60;;;;;;5039408;28;19909;-11
2023/04/10 10:56:18;;;;;;;;;;;19.30;48.70;;;;;;5039300;28;19935;-11
2023/04/10 10:58:56;;;;;;;;;;;19.30;48.80;;;;;;5037607;28;20096;-11
2023/04/10 11:01:22;;;;;;;;;;;19.20;48.80;;;;;;5032081;28;19909;-11
2023/04/10 11:03:48;;;;;;;;;;;19.20;48.90;;;;;;5033468;28;20229;-11
2023/04/10 11:06:15;;;;;;;;;;;19.20;49.00;;;;;;5032235;28;19909;-11
2023/04/10 11:08:43;;;;;;;;;;;19.20;49.00;;;;;;5035293;28;20294;-11
2023/04/10 11:11:19;;;;;;;;;;;19.20;49.10;;;;;;5038744;28;19913;-11
2023/04/10 11:13:47;;;;;;;;;;;19.20;49.30;;;;;;5038747;28;19920;-11
2023/04/10 11:16:13;;;;;;;;;;;19.20;49.30;;;;;;5034081;28;19936;-11
2023/04/10 11:18:45;;;;;;;;;;;19.10;49.50;;;;;;5032351;28;19947;-11
2023/04/10 11:21:14;;;;;;;;;;;19.10;49.60;;;;;;5032429;28;19939;-11
2023/04/10 11:23:49;;;;;;;;;;;19.10;49.60;;;;;;5033862;28;19909;-11
2023/04/10 11:26:39;;;;;;;;;;;19.10;49.80;;;;;;5034545;28;19996;-11
2023/04/10 11:29:24;;;;;;;;;;;19.10;49.90;;;;;;5033202;28;20310;-11
2023/04/10 11:31:56;;;;;;;;;;;19.00;50.00;;;;;;5032400;28;20297;-11
2023/04/10 11:34:22;;;;;;;;;;;19.00;50.00;;;;;;5033332;28;19910;-11
2023/04/10 11:36:48;;;;;;;;;;;19.00;50.10;;;;;;5032047;28;19915;-11
2023/04/10 11:39:17;;;;;;;;;;;19.00;50.30;;;;;;5030887;28;19909;-11
2023/04/10 11:41:47;;;;;;;;;;;18.90;50.30;;;;;;5033803;28;19909;-11
2023/04/10 11:44:15;;;;;;;;;;;18.90;50.50;;;;;;5031424;28;19991;-11
2023/04/10 11:46:47;;;;;;;;;;;18.90;50.60;;;;;;5031850;28;20207;-11
2023/04/10 11:49:20;;;;;;;;;;;18.90;50.70;;;;;;5034185;28;19909;-11
2023/04/10 11:51:47;;;;;;;;;;;18.90;50.70;;;;;;5030402;28;19913;-11
2023/04/10 11:54:13;;;;;;;;;;;18.90;50.80;;;;;;5031188;28;20007;-11
2023/04/10 11:56:39;;;;;;;;;;;18.80;50.90;;;;;;5031247;28;19945;-11
2023/04/10 11:59:09;;;;;;;;;;;18.90;51.00;;;;;;5032292;28;19971;-11
2023/04/10 12:01:44;;;;;;;;;;;18.80;50.90;;;;;;5031138;28;20070;-11
2023/04/10 12:04:14;;;;;;;;;;;18.80;50.90;;;;;;5032702;28;19916;-11
2023/04/10 12:06:47;;;;;;;;;;;18.80;51.00;;;;;;5029687;28;20342;-11
2023/04/10 12:09:14;;;;;;;;;;;18.80;51.20;;;;;;5030978;28;19909;-11
2023/04/10 12:11:47;;;;;;;;;;;18.80;51.10;;;;;;5029169;28;19997;-11
2023/04/10 12:14:13;;;;;;;;;;;18.80;51.10;;;;;;5030869;28;19909;-11
2023/04/10 12:16:38;;;;;;;;;;;18.80;51.10;;;;;;5030381;28;19905;-11
2023/04/10 12:19:04;;;;;;;;;;;18.80;51.20;;;;;;5029808;28;19917;-11
2023/04/10 12:21:30;;;;;;;;;;;18.80;51.40;;;;;;5031941;28;19917;-11
2023/04/10 12:23:56;;;;;;;;;;;18.70;51.40;;;;;;5030557;28;19909;-11
2023/04/10 12:26:21;;;;;;;;;;;18.70;51.40;;;;;;5032122;28;19909;-11
2023/04/10 12:28:54;;;;;;;;;;;18.70;51.40;;;;;;5029224;28;19913;-11
2023/04/10 12:31:45;;;;;;;;;;;18.70;51.40;;;;;;5031071;28;19913;-11
2023/04/10 12:34:17;;;;;;;;;;;18.60;51.40;;;;;;5026771;28;19963;-11
2023/04/10 12:36:50;;;;;;;;;;;18.70;51.70;;;;;;5028897;28;19909;-11
2023/04/10 12:39:22;;;;;;;;;;;18.70;51.70;;;;;;5028489;28;19909;-11
2023/04/10 12:41:48;;;;;;;;;;;18.60;51.80;;;;;;5028911;28;20157;-11
2023/04/10 12:44:14;;;;;;;;;;;18.70;51.90;;;;;;5026676;28;19939;-11
2023/04/10 12:46:40;;;;;;;;;;;18.70;51.90;;;;;;5029777;28;20267;-11
2023/04/10 12:49:10;;;;;;;;;;;18.70;52.00;;;;;;5028961;28;19909;-11
2023/04/10 12:51:42;;;;;;;;;;;18.60;52.00;;;;;;5030027;28;19920;-11
2023/04/10 12:54:08;;;;;;;;;;;18.60;51.90;;;;;;5030894;28;19916;-11
2023/04/10 12:56:43;;;;;;;;;;;18.60;51.90;;;;;;5029551;28;19909;-12
2023/04/10 12:59:09;;;;;;;;;;;18.60;52.00;;;;;;5030060;28;19913;-11
2023/04/10 13:01:38;;;;;;;;;;;18.60;52.20;;;;;;5033885;28;19972;-11
2023/04/10 13:04:04;;;;;;;;;;;18.60;52.10;;;;;;5036723;28;19909;-11
2023/04/10 13:06:29;;;;;;;;;;;18.60;52.00;;;;;;5032048;28;19914;-11
2023/04/10 13:08:55;;;;;;;;;;;18.60;51.90;;;;;;5018287;28;20255;-10
2023/04/10 13:11:21;;;;;;;;;;;18.60;51.80;;;;;;5015766;28;19913;-10
2023/04/10 13:13:47;;;;;;;;;;;18.60;51.40;;;;;;5016515;28;20473;-11
2023/04/10 13:16:13;;;;;;;;;;;18.60;51.30;;;;;;5015534;28;19918;-11
2023/04/10 13:18:39;;;;;;;;;;;18.60;51.20;;;;;;5031750;28;19967;-10
2023/04/10 13:21:04;;;;;;;;;;;18.60;51.10;;;;;;5015368;28;20493;-10
2023/04/10 13:23:30;;;;;;;;;;;18.50;51.10;;;;;;5032307;28;19913;-10
2023/04/10 13:25:58;;;;;;;;;;;18.50;51.10;;;;;;5032131;28;20373;-10
2023/04/10 13:28:24;;;;;;;;;;;18.50;51.20;;;;;;5013899;28;20004;-11
2023/04/10 13:30:50;;;;;;;;;;;18.50;51.30;;;;;;5032863;28;19914;-11
2023/04/10 13:33:16;;;;;;;;;;;18.50;51.40;;;;;;5016707;28;19918;-11
2023/04/10 13:35:42;;;;;;;;;;;18.50;51.40;;;;;;5016657;28;20028;-11
2023/04/10 13:38:10;;;;;;;;;;;18.40;51.30;;;;;;5029610;28;19909;-11
2023/04/10 13:40:36;;;;;;;;;;;18.40;51.40;;;;;;5035020;28;19909;-11
2023/04/10 13:43:01;;;;;;;;;;;18.40;51.50;;;;;;5036405;28;20321;-10
2023/04/10 13:45:27;;;;;;;;;;;18.40;51.50;;;;;;5056065;28;19913;-11
2023/04/10 13:47:52;;;;;;;;;;;18.40;51.70;;;;;;5039835;28;20286;-11
2023/04/10 13:50:18;;;;;;;;;;;18.40;51.60;;;;;;5039499;28;19910;-11
2023/04/10 13:52:43;;;;;;;;;;;18.40;51.60;;;;;;5040151;28;19924;-11
2023/04/10 13:55:09;;;;;;;;;;;18.40;51.40;;;;;;5040899;28;19909;-11
2023/04/10 13:57:35;;;;;;;;;;;18.40;50.90;;;;;;5040262;28;19991;-11
2023/04/10 14:00:00;;;;;;;;;;;18.50;50.50;;;;;;5056701;28;19921;-11
2023/04/10 14:02:26;;;;;;;;;;;18.50;50.30;;;;;;5040587;28;20008;-11
2023/04/10 14:04:51;;;;;;;;;;;18.50;49.90;;;;;;5039726;28;19909;-11
2023/04/10 14:07:17;;;;;;;;;;;18.50;49.80;;;;;;5040243;28;19913;-11
2023/04/10 14:09:45;;;;;;;;;;;18.50;49.50;;;;;;5040127;28;20417;-11
2023/04/10 14:12:10;;;;;;;;;;;18.40;49.10;;;;;;5039472;28;19979;-11
2023/04/10 14:14:36;;;;;;;;;;;18.50;48.90;;;;;;5040417;28;19917;-10
2023/04/10 14:17:01;;;;;;;;;;;18.50;48.60;;;;;;5039696;28;20241;-10